createdAt,value
2023-01-30T00:01:28.367Z,80.26
2023-01-30T00:03:55.263Z,80.25
2023-01-30T00:06:22.468Z,80.30
2023-01-30T00:08:49.309Z,79.58
2023-01-30T00:11:17.873Z,79.46
2023-01-30T00:13:44.778Z,78.75
2023-01-30T00:16:12.008Z,79.01
2023-01-30T00:18:40.080Z,78.67
2023-01-30T00:21:08.770Z,78.64
2023-01-30T00:23:36.296Z,78.34
2023-01-30T00:26:04.303Z,78.06
2023-01-30T00:28:31.620Z,78.68
2023-01-30T00:30:58.456Z,78.70
2023-01-30T00:33:26.885Z,79.92
2023-01-30T00:35:55.602Z,79.86
2023-01-30T00:38:23.560Z,79.19
2023-01-30T00:40:50.873Z,78.76
2023-01-30T00:43:48.829Z,80.52
2023-01-30T00:46:48.724Z,80.84
2023-01-30T00:49:15.806Z,81.20
2023-01-30T00:51:42.825Z,80.89
2023-01-30T00:54:09.902Z,80.97
2023-01-30T00:56:36.703Z,79.72
2023-01-30T00:59:03.516Z,80.31
2023-01-30T01:01:30.357Z,79.88
2023-01-30T01:03:57.185Z,80.38
2023-01-30T01:06:23.870Z,80.36
2023-01-30T01:08:50.718Z,80.80
2023-01-30T01:11:24.711Z,81.51
2023-01-30T01:13:59.350Z,80.85
2023-01-30T01:16:27.298Z,80.12
2023-01-30T01:18:54.714Z,80.10
2023-01-30T01:21:22.770Z,80.15
2023-01-30T01:23:53.886Z,79.87
2023-01-30T01:26:20.897Z,79.44
2023-01-30T01:28:47.893Z,80.96
2023-01-30T01:31:16.889Z,81.27
2023-01-30T01:33:43.649Z,82.30
2023-01-30T01:36:10.683Z,81.14
2023-01-30T01:38:37.734Z,80.15
2023-01-30T01:41:10.063Z,79.70
2023-01-30T01:43:39.752Z,79.86
2023-01-30T01:46:18.372Z,80.48
2023-01-30T01:48:49.174Z,81.85
2023-01-30T01:51:20.564Z,81.66
2023-01-30T01:53:59.425Z,80.64
2023-01-30T01:56:26.943Z,80.75
2023-01-30T01:59:10.491Z,79.78
2023-01-30T02:01:37.258Z,79.68
2023-01-30T02:04:09.997Z,80.08
2023-01-30T02:06:39.362Z,80.33
2023-01-30T02:09:10.236Z,79.66
2023-01-30T02:11:51.069Z,79.43
2023-01-30T02:14:19.705Z,78.90
2023-01-30T02:16:47.499Z,78.82
2023-01-30T02:19:31.649Z,78.35
2023-01-30T02:22:32.213Z,78.80
2023-01-30T02:25:21.134Z,78.70
2023-01-30T02:28:25.618Z,78.31
2023-01-30T02:31:05.997Z,78.55
2023-01-30T02:33:53.134Z,80.40
2023-01-30T02:36:28.968Z,81.84
2023-01-30T02:39:14.519Z,82.30
2023-01-30T02:41:48.634Z,82.44
2023-01-30T02:44:30.371Z,83.41
2023-01-30T02:47:23.665Z,82.04
2023-01-30T02:50:07.778Z,83.54
2023-01-30T02:52:35.854Z,84.10
2023-01-30T02:55:09.236Z,84.03
2023-01-30T02:57:36.072Z,83.70
2023-01-30T03:00:04.986Z,83.43
2023-01-30T03:02:50.707Z,83.23
2023-01-30T03:05:48.828Z,84.11
2023-01-30T03:08:58.862Z,84.72
2023-01-30T03:11:33.576Z,84.60
2023-01-30T03:14:14.692Z,85.00
2023-01-30T03:16:41.964Z,85.07
2023-01-30T03:19:13.593Z,85.48
2023-01-30T03:21:42.355Z,83.86
2023-01-30T03:24:09.173Z,83.61
2023-01-30T03:26:40.918Z,82.68
2023-01-30T03:29:07.701Z,82.03
2023-01-30T03:31:34.482Z,81.50
2023-01-30T03:34:01.346Z,81.26
2023-01-30T03:36:29.464Z,81.47
2023-01-30T03:38:56.497Z,80.90
2023-01-30T03:41:23.656Z,80.71
2023-01-30T03:43:50.461Z,80.72
2023-01-30T03:46:17.300Z,81.63
2023-01-30T03:48:44.119Z,82.17
2023-01-30T03:51:12.603Z,84.00
2023-01-30T03:53:39.391Z,84.76
2023-01-30T03:56:06.295Z,84.20
2023-01-30T03:58:35.252Z,82.13
2023-01-30T04:01:14.667Z,82.45
2023-01-30T04:03:42.223Z,83.69
2023-01-30T04:06:09.015Z,84.39
2023-01-30T04:08:35.788Z,83.30
2023-01-30T04:11:03.567Z,82.23
2023-01-30T04:13:30.368Z,83.07
2023-01-30T04:16:16.691Z,84.69
2023-01-30T04:19:01.991Z,83.34
2023-01-30T04:21:31.954Z,82.30
2023-01-30T04:23:58.848Z,84.11
2023-01-30T04:26:25.699Z,83.91
2023-01-30T04:28:52.664Z,83.36
2023-01-30T04:31:19.501Z,83.42
2023-01-30T04:34:03.917Z,85.05
2023-01-30T04:36:30.931Z,84.91
2023-01-30T04:38:58.326Z,83.92
2023-01-30T04:41:26.222Z,83.63
2023-01-30T04:43:57.495Z,84.96
2023-01-30T04:46:50.591Z,83.72
2023-01-30T04:49:17.694Z,82.59
2023-01-30T04:51:44.877Z,82.35
2023-01-30T04:54:11.734Z,83.59
2023-01-30T04:56:38.452Z,82.60
2023-01-30T04:59:06.371Z,83.99
2023-01-30T05:01:39.321Z,84.59
2023-01-30T05:04:07.483Z,83.33
2023-01-30T05:06:35.267Z,83.45
2023-01-30T05:09:03.121Z,82.18
2023-01-30T05:11:30.573Z,81.30
2023-01-30T05:13:57.457Z,81.36
2023-01-30T05:16:24.615Z,81.01
2023-01-30T05:18:51.741Z,81.31
2023-01-30T05:21:27.994Z,82.78
2023-01-30T05:23:56.382Z,81.49
2023-01-30T05:26:23.786Z,81.06
2023-01-30T05:28:57.865Z,81.66
2023-01-30T05:31:25.404Z,83.92
2023-01-30T05:33:52.687Z,84.47
2023-01-30T05:36:21.329Z,83.67
2023-01-30T05:38:48.144Z,84.23
2023-01-30T05:41:16.688Z,84.04
2023-01-30T05:43:44.175Z,84.92
2023-01-30T05:46:13.514Z,84.77
2023-01-30T05:48:40.639Z,85.31
2023-01-30T05:51:15.775Z,85.24
2023-01-30T05:53:42.522Z,83.63
2023-01-30T05:56:09.486Z,84.57
2023-01-30T05:58:36.193Z,86.04
2023-01-30T06:01:05.633Z,84.54
2023-01-30T06:03:33.035Z,84.27
2023-01-30T06:06:02.184Z,83.08
2023-01-30T06:08:29.531Z,84.31
2023-01-30T06:11:02.464Z,85.28
2023-01-30T06:13:29.571Z,85.75
2023-01-30T06:15:56.383Z,86.37
2023-01-30T06:18:23.300Z,87.29
2023-01-30T06:20:51.400Z,87.22
2023-01-30T06:23:18.999Z,86.28
2023-01-30T06:25:49.889Z,87.59
2023-01-30T06:28:17.922Z,87.79
2023-01-30T06:30:44.788Z,87.28
2023-01-30T06:33:11.986Z,86.96
2023-01-30T06:35:39.516Z,87.39
2023-01-30T06:38:06.804Z,88.55
2023-01-30T06:40:33.575Z,88.98
2023-01-30T06:43:00.409Z,88.58
2023-01-30T06:45:27.168Z,86.83
2023-01-30T06:47:55.729Z,85.98
2023-01-30T06:50:28.286Z,84.93
2023-01-30T06:52:55.513Z,84.92
2023-01-30T06:55:25.161Z,83.98
2023-01-30T06:58:04.622Z,82.99
2023-01-30T07:00:31.724Z,82.80
2023-01-30T07:02:58.845Z,84.82
2023-01-30T07:05:26.512Z,84.55
2023-01-30T07:07:53.278Z,84.97
2023-01-30T07:10:20.202Z,85.48
2023-01-30T07:12:48.130Z,84.26
2023-01-30T07:15:15.157Z,84.52
2023-01-30T07:17:42.128Z,84.23
2023-01-30T07:20:10.468Z,84.43
2023-01-30T07:22:37.383Z,85.87
2023-01-30T07:25:04.500Z,84.52
2023-01-30T07:27:31.355Z,84.77
2023-01-30T07:29:58.115Z,84.87
2023-01-30T07:32:25.019Z,85.82
2023-01-30T07:34:51.817Z,85.84
2023-01-30T07:37:18.549Z,85.87
2023-01-30T07:39:45.296Z,86.07
2023-01-30T07:42:12.025Z,85.58
2023-01-30T07:44:39.038Z,85.05
2023-01-30T07:47:05.816Z,85.38
2023-01-30T07:49:32.719Z,85.47
2023-01-30T07:51:59.455Z,85.10
2023-01-30T07:54:26.816Z,84.95
2023-01-30T07:56:53.518Z,85.58
2023-01-30T07:59:20.328Z,84.43
2023-01-30T08:01:47.079Z,84.02
2023-01-30T08:04:13.921Z,84.50
2023-01-30T08:06:40.662Z,84.60
2023-01-30T08:09:07.770Z,84.31
2023-01-30T08:11:35.174Z,85.35
2023-01-30T08:14:02.481Z,85.37
2023-01-30T08:16:29.294Z,86.30
2023-01-30T08:18:56.128Z,85.62
2023-01-30T08:21:22.850Z,84.57
2023-01-30T08:23:49.664Z,84.01
2023-01-30T08:26:16.551Z,82.92
2023-01-30T08:28:43.467Z,82.89
2023-01-30T08:31:14.887Z,82.62
2023-01-30T08:33:41.999Z,82.36
2023-01-30T08:36:09.397Z,81.76
2023-01-30T08:38:36.405Z,81.55
2023-01-30T08:41:05.613Z,82.02
2023-01-30T08:43:32.394Z,80.22
2023-01-30T08:45:59.188Z,80.57
2023-01-30T08:48:28.167Z,80.11
2023-01-30T08:50:56.557Z,79.22
2023-01-30T08:53:23.619Z,79.25
2023-01-30T08:55:53.864Z,79.57
2023-01-30T08:58:21.922Z,81.27
2023-01-30T09:00:50.323Z,81.26
2023-01-30T09:03:25.195Z,81.59
2023-01-30T09:05:56.277Z,81.44
2023-01-30T09:08:23.187Z,81.49
2023-01-30T09:10:49.915Z,82.61
2023-01-30T09:13:19.875Z,82.18
2023-01-30T09:15:46.690Z,82.20
2023-01-30T09:18:13.398Z,81.87
2023-01-30T09:20:40.192Z,81.26
2023-01-30T09:23:06.955Z,81.03
2023-01-30T09:25:33.735Z,80.66
2023-01-30T09:28:00.548Z,80.92
2023-01-30T09:30:27.466Z,80.54
2023-01-30T09:32:54.317Z,81.40
2023-01-30T09:35:21.121Z,80.74
2023-01-30T09:37:49.860Z,80.47
2023-01-30T09:40:27.166Z,79.54
2023-01-30T09:43:25.950Z,79.58
2023-01-30T09:46:01.227Z,80.04
2023-01-30T09:48:38.012Z,79.75
2023-01-30T09:51:48.042Z,79.61
2023-01-30T09:54:31.167Z,80.22
2023-01-30T09:57:22.570Z,79.90
2023-01-30T10:00:17.645Z,79.96
2023-01-30T10:03:00.077Z,79.94
2023-01-30T10:05:57.219Z,79.90
2023-01-30T10:08:37.489Z,79.30
2023-01-30T10:11:16.140Z,80.66
2023-01-30T10:14:04.532Z,78.79
2023-01-30T10:16:40.133Z,78.80
2023-01-30T10:19:26.136Z,78.58
2023-01-30T10:22:26.552Z,79.54
2023-01-30T10:25:14.417Z,78.96
2023-01-30T10:27:50.600Z,78.58
2023-01-30T10:30:18.474Z,78.25
2023-01-30T10:32:55.928Z,78.26
2023-01-30T10:35:27.078Z,78.70
2023-01-30T10:38:05.460Z,77.71
2023-01-30T10:40:52.408Z,76.41
2023-01-30T10:43:22.179Z,76.99
2023-01-30T10:45:58.002Z,77.43
2023-01-30T10:48:43.621Z,77.12
2023-01-30T10:51:42.543Z,76.59
2023-01-30T10:54:27.629Z,76.51
2023-01-30T10:57:40.032Z,76.31
2023-01-30T11:00:23.601Z,76.36
2023-01-30T11:03:24.979Z,76.25
2023-01-30T11:05:56.406Z,76.77
2023-01-30T11:08:29.197Z,76.81
2023-01-30T11:10:57.044Z,77.38
2023-01-30T11:13:34.374Z,78.06
2023-01-30T11:16:06.783Z,77.99
2023-01-30T11:19:17.648Z,77.31
2023-01-30T11:21:32.040Z,77.13
2023-01-30T11:24:14.506Z,77.08
2023-01-30T11:26:47.277Z,76.50
2023-01-30T11:29:23.590Z,76.88
2023-01-30T11:31:51.588Z,78.33
2023-01-30T11:34:20.785Z,77.63
2023-01-30T11:36:48.793Z,77.09
2023-01-30T11:39:17.628Z,77.75
2023-01-30T11:41:58.785Z,77.26
2023-01-30T11:44:30.767Z,76.22
2023-01-30T11:47:04.454Z,76.34
2023-01-30T11:49:46.899Z,76.32
2023-01-30T11:52:36.906Z,76.70
2023-01-30T11:55:11.258Z,76.35
2023-01-30T11:57:45.421Z,76.24
2023-01-30T12:00:25.024Z,76.72
2023-01-30T12:02:54.161Z,76.49
2023-01-30T12:05:34.775Z,76.22
2023-01-30T12:08:41.734Z,76.11
2023-01-30T12:11:42.202Z,75.60
2023-01-30T12:14:19.674Z,76.75
2023-01-30T12:17:12.115Z,75.45
2023-01-30T12:19:57.332Z,76.04
2023-01-30T12:22:46.016Z,76.06
2023-01-30T12:25:36.880Z,76.35
2023-01-30T12:28:14.364Z,75.57
2023-01-30T12:30:56.685Z,75.26
2023-01-30T12:33:28.772Z,75.09
2023-01-30T12:36:22.177Z,73.36
2023-01-30T12:39:25.847Z,71.44
2023-01-30T12:42:25.902Z,70.93
2023-01-30T12:44:58.749Z,70.72
2023-01-30T12:47:50.546Z,69.23
2023-01-30T12:50:29.526Z,67.87
2023-01-30T12:53:04.416Z,67.25
2023-01-30T12:56:01.693Z,65.34
2023-01-30T12:59:11.627Z,62.40
2023-01-30T13:01:48.144Z,62.81
2023-01-30T13:04:29.831Z,61.45
2023-01-30T13:07:28.179Z,61.42
2023-01-30T13:10:09.817Z,60.26
2023-01-30T13:12:39.321Z,61.25
2023-01-30T13:15:27.460Z,61.11
2023-01-30T13:18:15.671Z,61.25
2023-01-30T13:20:54.618Z,58.62
2023-01-30T13:23:39.170Z,59.08
2023-01-30T13:26:10.788Z,59.31
2023-01-30T13:28:45.847Z,60.23
2023-01-30T13:31:16.831Z,60.73
2023-01-30T13:33:46.090Z,62.21
2023-01-30T13:36:24.670Z,66.84
2023-01-30T13:39:03.530Z,68.53
2023-01-30T13:41:35.913Z,69.59
2023-01-30T13:44:16.927Z,69.52
2023-01-30T13:46:45.170Z,69.57
2023-01-30T13:49:46.772Z,70.04
2023-01-30T13:52:37.633Z,70.23
2023-01-30T13:55:33.492Z,71.11
2023-01-30T13:58:41.547Z,70.52
2023-01-30T14:01:08.391Z,71.99
2023-01-30T14:03:35.324Z,71.12
2023-01-30T14:06:06.108Z,70.91
2023-01-30T14:08:53.493Z,70.54
2023-01-30T14:11:31.065Z,70.71
2023-01-30T14:14:03.431Z,69.51
2023-01-30T14:16:46.081Z,69.85
2023-01-30T14:19:22.007Z,69.35
2023-01-30T14:21:57.722Z,67.49
2023-01-30T14:24:31.770Z,66.72
2023-01-30T14:26:58.466Z,66.89
2023-01-30T14:29:43.169Z,67.23
2023-01-30T14:32:14.464Z,65.69
2023-01-30T14:34:45.126Z,65.81
2023-01-30T14:37:42.096Z,66.34
2023-01-30T14:40:21.103Z,66.61
2023-01-30T14:43:12.865Z,66.19
2023-01-30T14:45:47.331Z,65.30
2023-01-30T14:48:44.473Z,65.60
2023-01-30T14:51:39.669Z,65.46
2023-01-30T14:54:13.320Z,63.84
2023-01-30T14:56:49.536Z,64.58
2023-01-30T14:59:16.255Z,65.58
2023-01-30T15:01:57.659Z,65.85
2023-01-30T15:04:27.846Z,66.83
2023-01-30T15:06:55.386Z,66.97
2023-01-30T15:09:28.288Z,64.86
2023-01-30T15:12:21.139Z,64.31
2023-01-30T15:15:18.851Z,63.85
2023-01-30T15:18:09.026Z,66.33
2023-01-30T15:20:54.415Z,67.36
2023-01-30T15:23:56.408Z,67.55
2023-01-30T15:27:02.317Z,68.48
2023-01-30T15:29:47.720Z,67.89
2023-01-30T15:32:34.843Z,67.82
2023-01-30T15:35:03.556Z,68.15
2023-01-30T15:37:37.897Z,68.21
2023-01-30T15:40:18.173Z,67.96
2023-01-30T15:43:02.040Z,68.22
2023-01-30T15:45:38.153Z,69.11
2023-01-30T15:48:14.231Z,69.18
2023-01-30T15:50:49.128Z,69.44
2023-01-30T15:53:17.042Z,69.63
2023-01-30T15:55:45.214Z,69.45
2023-01-30T15:58:19.510Z,69.79
2023-01-30T16:00:50.117Z,71.13
2023-01-30T16:03:21.737Z,71.52
2023-01-30T16:05:50.117Z,72.75
2023-01-30T16:08:21.724Z,73.12
2023-01-30T16:10:52.001Z,73.65
2023-01-30T16:13:21.138Z,73.33
2023-01-30T16:16:07.419Z,74.22
2023-01-30T16:18:57.514Z,74.25
2023-01-30T16:21:28.832Z,74.86
2023-01-30T16:23:55.500Z,74.96
2023-01-30T16:26:23.203Z,75.38
2023-01-30T16:28:58.091Z,75.17
2023-01-30T16:31:26.129Z,75.79
2023-01-30T16:33:53.195Z,76.52
2023-01-30T16:36:19.910Z,76.23
2023-01-30T16:38:49.102Z,76.45
2023-01-30T16:41:36.944Z,75.97
2023-01-30T16:44:23.229Z,76.61
2023-01-30T16:46:52.659Z,76.86
2023-01-30T16:49:24.866Z,77.61
2023-01-30T16:52:02.463Z,77.20
2023-01-30T16:54:31.343Z,77.32
2023-01-30T16:57:00.994Z,77.10
2023-01-30T16:59:33.638Z,77.46
2023-01-30T17:02:04.610Z,78.69
2023-01-30T17:04:34.200Z,78.76
2023-01-30T17:07:04.775Z,77.89
2023-01-30T17:09:40.790Z,77.93
2023-01-30T17:12:25.584Z,77.50
2023-01-30T17:15:14.469Z,77.21
2023-01-30T17:17:41.577Z,77.56
2023-01-30T17:20:09.332Z,77.49
2023-01-30T17:22:39.622Z,77.09
2023-01-30T17:25:17.998Z,77.45
2023-01-30T17:27:44.865Z,77.62
2023-01-30T17:30:16.082Z,78.04
2023-01-30T17:32:45.827Z,78.46
2023-01-30T17:35:12.992Z,78.96
2023-01-30T17:37:39.735Z,78.47
2023-01-30T17:40:17.387Z,78.65
2023-01-30T17:42:44.431Z,79.59
2023-01-30T17:45:11.838Z,79.85
2023-01-30T17:47:39.011Z,79.70
2023-01-30T17:50:06.141Z,79.67
2023-01-30T17:52:33.144Z,79.67
2023-01-30T17:54:59.902Z,79.81
2023-01-30T17:57:26.661Z,79.52
2023-01-30T17:59:55.282Z,80.13
2023-01-30T18:02:22.270Z,80.27
2023-01-30T18:04:49.032Z,80.12
2023-01-30T18:07:16.738Z,80.57
2023-01-30T18:09:43.508Z,80.40
2023-01-30T18:12:10.418Z,80.74
2023-01-30T18:14:38.274Z,80.39
2023-01-30T18:17:05.198Z,80.87
2023-01-30T18:19:32.073Z,81.21
2023-01-30T18:21:59.023Z,80.64
2023-01-30T18:24:26.163Z,80.86
2023-01-30T18:26:53.198Z,80.90
2023-01-30T18:29:20.165Z,80.40
2023-01-30T18:31:47.337Z,81.00
2023-01-30T18:34:14.345Z,81.26
2023-01-30T18:36:41.309Z,81.12
2023-01-30T18:39:08.204Z,81.20
2023-01-30T18:41:37.698Z,79.74
2023-01-30T18:44:06.747Z,77.39
2023-01-30T18:46:33.648Z,78.69
2023-01-30T18:49:00.945Z,78.70
2023-01-30T18:51:31.002Z,77.08
2023-01-30T18:53:58.678Z,77.47
2023-01-30T18:56:31.825Z,77.26
2023-01-30T18:59:04.483Z,76.26
2023-01-30T19:01:42.465Z,75.65
2023-01-30T19:04:11.548Z,75.92
2023-01-30T19:06:41.396Z,76.32
2023-01-30T19:09:11.988Z,76.70
2023-01-30T19:11:57.433Z,76.57
2023-01-30T19:14:24.295Z,76.00
2023-01-30T19:16:51.462Z,74.32
2023-01-30T19:19:18.514Z,73.55
2023-01-30T19:21:45.470Z,74.43
2023-01-30T19:24:15.154Z,74.94
2023-01-30T19:26:42.420Z,74.91
2023-01-30T19:29:09.851Z,74.00
2023-01-30T19:31:37.197Z,74.16
2023-01-30T19:34:06.374Z,74.21
2023-01-30T19:36:35.168Z,74.25
2023-01-30T19:39:03.684Z,75.01
2023-01-30T19:41:33.860Z,75.01
2023-01-30T19:44:02.612Z,75.76
2023-01-30T19:46:29.569Z,76.23
2023-01-30T19:48:57.164Z,76.59
2023-01-30T19:51:30.304Z,76.59
2023-01-30T19:53:59.732Z,75.89
2023-01-30T19:56:27.836Z,76.14
2023-01-30T19:58:57.459Z,76.03
2023-01-30T20:01:32.272Z,76.32
2023-01-30T20:03:59.634Z,76.71
2023-01-30T20:06:29.523Z,76.73
2023-01-30T20:09:02.202Z,77.70
2023-01-30T20:11:30.133Z,77.89
2023-01-30T20:13:58.583Z,77.79
2023-01-30T20:16:27.897Z,78.21
2023-01-30T20:18:58.124Z,77.95
2023-01-30T20:21:27.097Z,78.11
2023-01-30T20:26:23.780Z,78.21
2023-01-30T20:28:50.941Z,78.17
2023-01-30T20:31:21.212Z,78.40
2023-01-30T20:33:48.893Z,78.55
2023-01-30T20:36:22.182Z,78.47
2023-01-30T20:38:50.286Z,78.73
2023-01-30T20:41:22.143Z,78.96
2023-01-30T20:43:52.230Z,79.54
2023-01-30T20:46:23.317Z,79.46
2023-01-30T20:48:54.439Z,79.08
2023-01-30T20:51:24.943Z,79.45
2023-01-30T20:53:53.528Z,79.76
2023-01-30T20:56:21.761Z,79.60
2023-01-30T20:58:49.815Z,79.71
2023-01-30T21:01:19.664Z,79.73
2023-01-30T21:03:49.627Z,79.22
2023-01-30T21:06:41.532Z,79.10
2023-01-30T21:09:06.573Z,78.86
2023-01-30T21:11:34.120Z,78.77
2023-01-30T21:14:01.208Z,75.71
2023-01-30T21:16:30.978Z,75.09
2023-01-30T21:19:04.203Z,75.29
2023-01-30T21:21:34.105Z,75.26
2023-01-30T21:24:05.002Z,74.87
2023-01-30T21:26:35.864Z,73.38
2023-01-30T21:29:06.850Z,74.23
2023-01-30T21:31:37.181Z,75.02
2023-01-30T21:34:05.356Z,74.41
2023-01-30T21:36:32.510Z,74.72
2023-01-30T21:39:18.425Z,73.15
2023-01-30T21:42:12.621Z,73.23
2023-01-30T21:44:40.986Z,71.64
2023-01-30T21:47:08.259Z,71.45
2023-01-30T21:49:36.714Z,70.71
2023-01-30T21:52:04.309Z,72.22
2023-01-30T21:54:31.339Z,73.16
2023-01-30T21:56:58.288Z,73.22
2023-01-30T21:59:25.332Z,73.54
2023-01-30T22:01:52.218Z,73.82
2023-01-30T22:04:19.700Z,74.52
2023-01-30T22:06:46.538Z,74.88
2023-01-30T22:09:15.230Z,75.00
2023-01-30T22:11:42.397Z,74.97
2023-01-30T22:14:09.567Z,75.53
2023-01-30T22:16:36.567Z,76.14
2023-01-30T22:19:04.848Z,75.32
2023-01-30T22:21:36.308Z,74.72
2023-01-30T22:24:05.851Z,74.72
2023-01-30T22:26:34.089Z,74.75
2023-01-30T22:29:02.858Z,74.89
2023-01-30T22:31:34.458Z,74.38
2023-01-30T22:34:03.405Z,74.60
2023-01-30T22:36:32.267Z,74.55
2023-01-30T22:38:59.371Z,74.75
2023-01-30T22:41:27.942Z,74.60
2023-01-30T22:43:57.540Z,75.14
2023-01-30T22:46:28.151Z,75.70
2023-01-30T22:48:55.399Z,76.05
2023-01-30T22:51:25.043Z,75.73
2023-01-30T22:53:56.199Z,76.40
2023-01-30T22:56:24.833Z,76.44
2023-01-30T22:58:51.952Z,76.29
2023-01-30T23:01:21.561Z,75.72
2023-01-30T23:03:52.969Z,76.22
2023-01-30T23:06:20.158Z,76.04
2023-01-30T23:08:48.564Z,76.34
2023-01-30T23:11:20.768Z,76.33
2023-01-30T23:13:50.247Z,76.37
2023-01-30T23:16:20.389Z,76.30
2023-01-30T23:18:56.782Z,76.05
2023-01-30T23:21:24.801Z,76.60
2023-01-30T23:23:54.009Z,76.57
2023-01-30T23:26:22.533Z,75.99
2023-01-30T23:28:49.719Z,76.50
2023-01-30T23:31:20.197Z,75.83
2023-01-30T23:33:47.525Z,76.04
2023-01-30T23:36:15.025Z,76.15
2023-01-30T23:38:41.880Z,75.81
2023-01-30T23:41:13.831Z,76.15
2023-01-30T23:43:42.663Z,76.23
2023-01-30T23:46:30.974Z,76.56
2023-01-30T23:49:02.439Z,76.54
2023-01-30T23:51:31.566Z,76.28
2023-01-30T23:53:58.960Z,75.98
2023-01-30T23:56:27.958Z,75.49
2023-01-30T23:58:55.238Z,75.61
